createdAt,value
2018-07-13T00:00:10.503Z,998.94
2018-07-13T00:01:20.567Z,998.97
2018-07-13T00:02:30.634Z,998.91
2018-07-13T00:03:40.725Z,998.94
2018-07-13T00:04:50.542Z,998.92
2018-07-13T00:06:00.662Z,998.93
2018-07-13T00:07:10.737Z,998.93
2018-07-13T00:08:20.826Z,998.91
2018-07-13T00:09:30.890Z,998.89
2018-07-13T00:10:40.959Z,998.88
2018-07-13T00:11:50.768Z,998.87
2018-07-13T00:13:00.839Z,998.9
2018-07-13T00:14:10.935Z,998.93
2018-07-13T00:15:21.023Z,998.89
2018-07-13T00:16:30.833Z,998.91
2018-07-13T00:17:40.665Z,998.89
2018-07-13T00:18:50.733Z,998.94
2018-07-13T00:20:00.822Z,998.91
2018-07-13T00:21:10.641Z,998.94
2018-07-13T00:22:20.754Z,998.86
2018-07-13T00:23:30.825Z,998.87
2018-07-13T00:24:40.956Z,998.82
2018-07-13T00:25:50.767Z,998.86
2018-07-13T00:27:00.829Z,998.86
2018-07-13T00:28:10.671Z,998.85
2018-07-13T00:29:20.748Z,998.86
2018-07-13T00:30:30.618Z,998.91
2018-07-13T00:31:40.707Z,998.94
2018-07-13T00:32:50.802Z,998.94
2018-07-13T00:34:00.886Z,998.93
2018-07-13T00:35:10.944Z,998.95
2018-07-13T00:36:21.028Z,998.96
2018-07-13T00:37:31.110Z,998.92
2018-07-13T00:38:41.190Z,998.93
2018-07-13T00:39:51.322Z,998.91
2018-07-13T00:41:01.383Z,998.92
2018-07-13T00:42:11.463Z,998.9
2018-07-13T00:43:21.539Z,998.9
2018-07-13T00:44:31.626Z,998.86
2018-07-13T00:45:41.744Z,998.89
2018-07-13T00:46:51.823Z,998.88
2018-07-13T00:48:01.904Z,998.88
2018-07-13T00:49:11.718Z,998.9
2018-07-13T00:50:21.784Z,998.88
2018-07-13T00:51:31.591Z,998.9
2018-07-13T00:52:41.406Z,998.92
2018-07-13T00:53:51.476Z,998.91
2018-07-13T00:55:01.271Z,998.96
2018-07-13T00:56:11.084Z,998.94
2018-07-13T00:57:20.953Z,998.94
2018-07-13T00:58:30.773Z,998.93
2018-07-13T00:59:40.851Z,998.94
2018-07-13T01:00:50.909Z,998.95
2018-07-13T01:02:00.994Z,998.97
2018-07-13T01:03:10.802Z,998.96
2018-07-13T01:04:20.616Z,998.94
2018-07-13T01:05:30.677Z,998.98
2018-07-13T01:06:40.740Z,998.96
2018-07-13T01:07:50.817Z,998.95
2018-07-13T01:09:00.880Z,998.95
2018-07-13T01:10:10.698Z,998.98
2018-07-13T01:11:20.763Z,998.95
2018-07-13T01:12:30.858Z,998.94
2018-07-13T01:13:40.927Z,998.95
2018-07-13T01:14:51.006Z,998.98
2018-07-13T01:16:00.817Z,998.95
2018-07-13T01:17:10.905Z,999
2018-07-13T01:18:20.707Z,998.99
2018-07-13T01:19:30.782Z,998.98
2018-07-13T01:20:40.592Z,998.98
2018-07-13T01:21:50.676Z,998.93
2018-07-13T01:23:00.769Z,998.94
2018-07-13T01:24:10.844Z,998.94
2018-07-13T01:25:20.898Z,998.91
2018-07-13T01:26:30.454Z,998.9
2018-07-13T01:27:40.016Z,998.87
2018-07-13T01:28:50.086Z,998.87
2018-07-13T01:30:00.153Z,998.86
2018-07-13T01:31:09.965Z,998.84
2018-07-13T01:32:19.523Z,998.86
2018-07-13T01:33:29.316Z,998.79
2018-07-13T01:34:39.383Z,998.8
2018-07-13T01:35:49.197Z,998.81
2018-07-13T01:36:59.280Z,998.8
2018-07-13T01:38:09.407Z,998.84
2018-07-13T01:39:19.461Z,998.85
2018-07-13T01:40:29.531Z,998.86
2018-07-13T01:41:39.620Z,998.85
2018-07-13T01:42:49.682Z,998.85
2018-07-13T01:43:59.772Z,998.88
2018-07-13T01:45:09.865Z,998.89
2018-07-13T01:46:19.663Z,998.89
2018-07-13T01:47:29.755Z,998.9
2018-07-13T01:48:39.825Z,998.89
2018-07-13T01:49:49.882Z,998.89
2018-07-13T01:50:59.960Z,998.92
2018-07-13T01:52:09.799Z,998.91
2018-07-13T01:53:19.628Z,998.94
2018-07-13T01:54:29.729Z,998.91
2018-07-13T01:55:39.572Z,998.92
2018-07-13T01:56:50.012Z,998.89
2018-07-13T01:58:00.091Z,998.91
2018-07-13T01:59:10.161Z,998.89
2018-07-13T02:00:19.972Z,998.87
2018-07-13T02:01:30.051Z,998.91
2018-07-13T02:02:40.129Z,998.86
2018-07-13T02:03:50.196Z,998.9
2018-07-13T02:05:00.279Z,998.93
2018-07-13T02:06:10.368Z,998.93
2018-07-13T02:07:20.452Z,998.94
2018-07-13T02:08:30.525Z,998.91
2018-07-13T02:09:40.595Z,998.9
2018-07-13T02:10:50.712Z,998.92
2018-07-13T02:12:00.515Z,998.93
2018-07-13T02:13:10.582Z,998.92
2018-07-13T02:14:20.402Z,998.92
2018-07-13T02:15:30.215Z,998.92
2018-07-13T02:16:40.276Z,998.91
2018-07-13T02:17:50.156Z,998.95
2018-07-13T02:19:00.286Z,998.9
2018-07-13T02:20:10.342Z,998.86
2018-07-13T02:21:20.167Z,998.9
2018-07-13T02:22:30.226Z,998.88
2018-07-13T02:23:40.296Z,998.91
2018-07-13T02:24:50.368Z,998.88
2018-07-13T02:26:00.431Z,998.89
2018-07-13T02:27:10.511Z,998.86
2018-07-13T02:28:20.576Z,998.83
2018-07-13T02:29:30.701Z,998.86
2018-07-13T02:30:40.614Z,998.83
2018-07-13T02:31:50.699Z,998.83
2018-07-13T02:33:00.783Z,998.86
2018-07-13T02:34:10.856Z,998.85
2018-07-13T02:35:20.941Z,998.84
2018-07-13T02:36:31.018Z,998.84
2018-07-13T02:37:41.118Z,998.83
2018-07-13T02:38:51.254Z,998.82
2018-07-13T02:40:01.535Z,998.83
2018-07-13T02:41:11.647Z,998.84
2018-07-13T02:42:21.502Z,998.86
2018-07-13T02:43:31.593Z,998.86
2018-07-13T02:44:41.661Z,998.83
2018-07-13T02:45:51.743Z,998.89
2018-07-13T02:47:01.828Z,998.88
2018-07-13T02:48:11.905Z,998.92
2018-07-13T02:49:22.008Z,998.91
2018-07-13T02:50:32.074Z,998.9
2018-07-13T02:51:42.153Z,998.91
2018-07-13T02:52:52.309Z,998.95
2018-07-13T02:54:02.391Z,998.91
2018-07-13T02:55:12.545Z,998.9
2018-07-13T02:56:22.604Z,998.92
2018-07-13T02:57:32.416Z,998.91
2018-07-13T02:58:42.494Z,998.89
2018-07-13T02:59:52.573Z,998.93
2018-07-13T03:01:02.685Z,998.89
2018-07-13T03:02:12.751Z,998.93
2018-07-13T03:03:22.832Z,998.89
2018-07-13T03:35:29.320Z,998.97
2018-07-13T03:36:39.390Z,999
2018-07-13T03:37:49.447Z,999.06
2018-07-13T03:38:59.503Z,999.07
2018-07-13T03:40:09.569Z,999.08
2018-07-13T03:41:19.624Z,999.05
2018-07-13T03:42:29.420Z,999.06
2018-07-13T03:43:39.490Z,999.06
2018-07-13T03:44:49.040Z,999.1
2018-07-13T03:45:59.109Z,999.11
2018-07-13T03:47:08.667Z,999.13
2018-07-13T03:48:18.547Z,999.12
2018-07-13T03:49:28.877Z,999.19
2018-07-13T03:50:38.940Z,999.21
2018-07-13T03:51:49.022Z,999.21
2018-07-13T03:52:58.843Z,999.19
2018-07-13T03:54:08.986Z,999.19
2018-07-13T03:55:19.112Z,999.23
2018-07-13T03:56:29.180Z,999.18
2018-07-13T03:57:38.984Z,999.21
2018-07-13T03:58:49.076Z,999.22
2018-07-13T03:59:59.146Z,999.25
2018-07-13T04:01:09.236Z,999.23
2018-07-13T04:02:19.306Z,999.28
2018-07-13T04:03:28.872Z,999.29
2018-07-13T04:04:38.678Z,999.27
2018-07-13T04:05:48.499Z,999.29
2018-07-13T04:06:58.582Z,999.26
2018-07-13T04:08:09.087Z,999.27
2018-07-13T04:09:19.154Z,999.3
2018-07-13T04:10:28.968Z,999.36
2018-07-13T04:11:38.804Z,999.33
2018-07-13T04:12:49.051Z,999.37
2018-07-13T04:13:59.114Z,999.3
2018-07-13T04:15:09.174Z,999.29
2018-07-13T04:16:18.974Z,999.25
2018-07-13T04:17:28.805Z,999.26
2018-07-13T04:18:38.861Z,999.24
2018-07-13T04:19:48.936Z,999.29
2018-07-13T04:20:58.741Z,999.26
2018-07-13T04:22:08.909Z,999.29
2018-07-13T04:23:18.449Z,999.32
2018-07-13T04:24:28.579Z,999.28
2018-07-13T04:25:38.650Z,999.28
2018-07-13T04:26:48.475Z,999.37
2018-07-13T04:27:58.545Z,999.84
2018-07-13T04:29:08.606Z,1000.08
2018-07-13T04:30:18.416Z,1000.1
2018-07-13T04:31:28.471Z,999.94
2018-07-13T04:32:38.543Z,999.91
2018-07-13T04:33:48.370Z,999.86
2018-07-13T04:34:58.176Z,999.9
2018-07-13T04:36:08.247Z,999.84
2018-07-13T04:37:18.057Z,999.74
2018-07-13T04:38:28.142Z,999.72
2018-07-13T04:39:38.269Z,999.65
2018-07-13T04:40:48.372Z,999.62
2018-07-13T04:41:58.630Z,999.6
2018-07-13T04:43:08.694Z,999.63
2018-07-13T04:44:18.766Z,999.63
2018-07-13T04:45:28.580Z,999.57
2018-07-13T04:46:38.674Z,999.62
2018-07-13T04:47:48.756Z,999.64
2018-07-13T04:48:58.582Z,999.73
2018-07-13T04:50:08.471Z,999.72
2018-07-13T04:51:18.638Z,999.74
2018-07-13T04:52:28.457Z,999.75
2018-07-13T04:53:38.537Z,999.76
2018-07-13T04:54:48.351Z,999.67
2018-07-13T04:55:58.437Z,999.7
2018-07-13T04:57:08.504Z,999.74
2018-07-13T04:58:18.572Z,999.83
2018-07-13T04:59:28.405Z,999.82
2018-07-13T05:00:38.522Z,999.85
2018-07-13T05:01:48.753Z,999.83
2018-07-13T05:02:59.270Z,999.84
2018-07-13T05:04:09.086Z,999.84
2018-07-13T05:05:18.895Z,999.77
2018-07-13T05:06:29.025Z,999.76
2018-07-13T05:07:39.088Z,999.72
2018-07-13T05:08:49.206Z,999.69
2018-07-13T05:09:59.043Z,999.66
2018-07-13T05:11:09.124Z,999.64
2018-07-13T05:12:18.949Z,999.61
2018-07-13T05:13:29.034Z,999.64
2018-07-13T05:14:39.120Z,999.61
2018-07-13T05:15:49.207Z,999.61
2018-07-13T05:16:59.040Z,999.67
2018-07-13T05:18:09.177Z,999.68
2018-07-13T05:19:18.980Z,999.68
2018-07-13T05:20:28.797Z,999.82
2018-07-13T05:21:38.941Z,1000.27
2018-07-13T05:22:49.004Z,1000.62
2018-07-13T05:23:59.088Z,1000.4
2018-07-13T05:25:09.194Z,1000.28
2018-07-13T05:26:19.255Z,1000.19
2018-07-13T05:27:29.324Z,999.96
2018-07-13T05:28:39.404Z,1000.15
2018-07-13T05:29:49.479Z,1000.29
2018-07-13T05:30:59.543Z,1000.14
2018-07-13T05:32:09.635Z,1000.16
2018-07-13T05:33:19.757Z,1000.17
2018-07-13T05:34:29.826Z,1000.21
2018-07-13T05:35:39.908Z,1000.17
2018-07-13T05:36:49.979Z,1000.14
2018-07-13T05:37:59.819Z,1000.21
2018-07-13T05:39:09.893Z,1000.27
2018-07-13T05:40:19.954Z,1000.13
2018-07-13T05:41:29.770Z,1000.03
2018-07-13T05:42:39.578Z,1000.05
2018-07-13T05:43:49.664Z,1000.03
2018-07-13T05:44:59.757Z,1000.06
2018-07-13T05:46:09.833Z,1000.07
2018-07-13T05:47:19.653Z,1000.02
2018-07-13T05:48:29.731Z,999.89
2018-07-13T05:49:39.800Z,999.9
2018-07-13T05:50:50.304Z,1000.01
2018-07-13T05:52:00.132Z,999.93
2018-07-13T05:53:09.957Z,999.87
2018-07-13T05:54:19.779Z,999.87
2018-07-13T05:55:29.857Z,999.95
2018-07-13T05:56:39.928Z,999.97
2018-07-13T05:57:50.018Z,999.89
2018-07-13T05:59:00.099Z,999.88
2018-07-13T06:00:10.183Z,999.82
2018-07-13T06:01:20.259Z,999.89
2018-07-13T06:02:30.340Z,999.87
2018-07-13T06:03:40.433Z,999.83
2018-07-13T06:04:50.636Z,999.85
2018-07-13T06:06:00.457Z,999.87
2018-07-13T06:07:10.530Z,999.88
2018-07-13T06:08:20.596Z,999.83
2018-07-13T06:09:30.419Z,999.79
2018-07-13T06:10:40.603Z,999.81
2018-07-13T06:11:50.431Z,999.78
2018-07-13T06:13:00.514Z,999.79
2018-07-13T06:14:10.584Z,999.76
2018-07-13T06:15:20.656Z,999.78
2018-07-13T06:16:30.464Z,999.77
2018-07-13T06:17:40.295Z,999.76
2018-07-13T06:18:50.411Z,999.71
2018-07-13T06:20:00.502Z,999.74
2018-07-13T06:21:10.605Z,999.68
2018-07-13T06:22:20.700Z,999.75
2018-07-13T06:23:30.557Z,999.68
2018-07-13T06:24:40.629Z,999.56
2018-07-13T06:25:50.704Z,999.42
2018-07-13T06:27:00.782Z,999.53
2018-07-13T06:28:10.863Z,999.56
2018-07-13T06:29:20.720Z,999.6
2018-07-13T06:30:30.783Z,999.66
2018-07-13T06:31:40.601Z,999.75
2018-07-13T06:32:50.422Z,999.79
2018-07-13T06:34:00.554Z,999.72
2018-07-13T06:35:10.685Z,999.77
2018-07-13T06:36:20.762Z,999.78
2018-07-13T06:37:30.584Z,999.79
2018-07-13T06:38:40.405Z,999.75
2018-07-13T06:39:50.508Z,999.75
2018-07-13T06:41:00.635Z,999.72
2018-07-13T06:42:10.695Z,999.73
2018-07-13T06:43:20.768Z,999.77
2018-07-13T06:44:30.615Z,999.74
2018-07-13T06:45:40.706Z,999.72
2018-07-13T06:46:50.787Z,999.69
2018-07-13T06:48:00.901Z,999.73
2018-07-13T06:49:10.985Z,999.8
2018-07-13T06:50:21.143Z,999.74
2018-07-13T06:51:31.500Z,999.71
2018-07-13T06:52:41.595Z,999.73
2018-07-13T06:53:51.416Z,999.71
2018-07-13T06:55:01.249Z,999.72
2018-07-13T06:56:11.326Z,999.69
2018-07-13T06:57:20.878Z,999.71
2018-07-13T06:58:30.709Z,999.69
2018-07-13T06:59:40.786Z,999.71
2018-07-13T07:00:50.873Z,999.73
2018-07-13T07:02:00.701Z,999.74
2018-07-13T07:03:10.791Z,999.71
2018-07-13T07:04:20.924Z,999.71
2018-07-13T07:05:30.992Z,999.71
2018-07-13T07:06:40.817Z,999.74
2018-07-13T07:07:50.910Z,999.73
2018-07-13T07:09:00.980Z,999.73
2018-07-13T07:10:11.066Z,999.76
2018-07-13T07:11:21.149Z,999.7
2018-07-13T07:12:31.228Z,999.75
2018-07-13T07:13:41.316Z,999.73
2018-07-13T07:14:51.386Z,999.6
2018-07-13T07:16:01.454Z,999.59
2018-07-13T07:17:11.548Z,999.6
2018-07-13T07:18:21.636Z,999.63
2018-07-13T07:19:31.726Z,999.66
2018-07-13T07:20:41.796Z,999.68
2018-07-13T07:21:51.623Z,999.68
2018-07-13T07:23:01.449Z,999.7
2018-07-13T07:24:11.591Z,999.71
2018-07-13T07:25:21.674Z,999.71
2018-07-13T07:26:31.472Z,999.75
2018-07-13T07:27:41.296Z,999.73
2018-07-13T07:28:51.357Z,999.77
2018-07-13T07:30:01.448Z,999.76
2018-07-13T07:31:11.255Z,999.71
2018-07-13T07:32:21.316Z,999.73
2018-07-13T07:33:31.394Z,999.69
2018-07-13T07:34:41.489Z,999.72
2018-07-13T07:35:51.593Z,999.66
2018-07-13T07:37:01.695Z,999.68
2018-07-13T07:38:11.505Z,999.65
2018-07-13T07:39:21.395Z,999.69
2018-07-13T07:40:31.463Z,999.7
2018-07-13T07:41:41.323Z,999.69
2018-07-13T07:42:51.404Z,999.69
2018-07-13T07:44:01.525Z,999.69
2018-07-13T07:45:11.572Z,999.7
2018-07-13T07:46:21.714Z,999.66
2018-07-13T07:47:31.802Z,999.72
2018-07-13T07:48:41.624Z,999.74
2018-07-13T07:49:51.467Z,999.7
2018-07-13T07:51:01.449Z,999.71
2018-07-13T07:52:11.549Z,999.69
2018-07-13T07:53:21.636Z,999.69
2018-07-13T07:54:31.730Z,999.78
2018-07-13T07:55:41.550Z,999.78
2018-07-13T07:56:51.374Z,999.71
2018-07-13T07:58:01.448Z,999.81
2018-07-13T07:59:11.541Z,999.73
2018-07-13T08:00:21.631Z,999.73
2018-07-13T08:01:31.707Z,999.74
2018-07-13T08:02:41.614Z,999.72
2018-07-13T08:03:51.846Z,999.79
2018-07-13T08:05:01.925Z,999.75
2018-07-13T08:06:12.115Z,999.75
2018-07-13T08:07:22.614Z,999.71
2018-07-13T08:08:32.993Z,999.69
2018-07-13T08:09:43.104Z,999.68
2018-07-13T08:10:53.194Z,999.68
2018-07-13T08:12:03.009Z,999.69
2018-07-13T08:13:13.087Z,999.66
2018-07-13T08:14:23.191Z,999.64
2018-07-13T08:15:33.491Z,999.71
2018-07-13T08:16:43.590Z,999.68
2018-07-13T08:17:53.689Z,999.67
2018-07-13T08:19:03.788Z,999.65
2018-07-13T08:20:13.920Z,999.67
2018-07-13T08:21:24.008Z,999.68
2018-07-13T08:22:34.090Z,999.67
2018-07-13T08:23:44.175Z,999.61
2018-07-13T08:24:54.246Z,999.62
2018-07-13T08:26:03.807Z,999.68
2018-07-13T08:27:13.905Z,999.69
2018-07-13T08:28:23.999Z,999.62
2018-07-13T08:29:34.087Z,999.56
2018-07-13T08:30:44.161Z,999.57
2018-07-13T08:31:54.247Z,999.56
2018-07-13T08:33:04.334Z,999.62
2018-07-13T08:34:14.165Z,999.57
2018-07-13T08:35:24.238Z,999.57
2018-07-13T08:36:34.323Z,999.61
2018-07-13T08:37:44.432Z,999.64
2018-07-13T08:38:54.547Z,999.63
2018-07-13T08:40:04.629Z,999.63
2018-07-13T08:41:14.729Z,999.62
2018-07-13T08:42:24.849Z,999.68
2018-07-13T08:43:34.920Z,999.61
2018-07-13T08:44:44.726Z,999.6
2018-07-13T08:45:54.833Z,999.65
2018-07-13T08:47:05.180Z,999.6
2018-07-13T08:48:15.259Z,999.62
2018-07-13T08:49:25.446Z,999.55
2018-07-13T08:50:35.355Z,999.58
2018-07-13T08:51:45.461Z,999.49
2018-07-13T08:52:55.571Z,999.51
2018-07-13T08:54:05.649Z,999.52
2018-07-13T08:55:15.741Z,999.51
2018-07-13T08:56:25.563Z,999.55
2018-07-13T08:57:35.649Z,999.49
2018-07-13T08:58:45.737Z,999.54
2018-07-13T08:59:55.642Z,999.44
2018-07-13T09:01:05.363Z,999.4
2018-07-13T09:02:15.455Z,999.47
2018-07-13T09:03:25.282Z,999.44
2018-07-13T09:04:35.212Z,999.42
2018-07-13T09:05:44.818Z,999.44
2018-07-13T09:06:55.485Z,999.47
2018-07-13T09:08:05.635Z,999.45
2018-07-13T09:09:15.773Z,999.42
2018-07-13T09:10:25.871Z,999.48
2018-07-13T09:11:35.694Z,999.45
2018-07-13T09:12:45.922Z,999.44
2018-07-13T09:13:56.324Z,999.47
2018-07-13T09:15:06.148Z,999.48
2018-07-13T09:16:15.979Z,999.52
2018-07-13T09:17:25.799Z,999.43
2018-07-13T09:18:35.906Z,999.47
2018-07-13T09:19:45.735Z,999.48
2018-07-13T09:20:55.559Z,999.57
2018-07-13T09:22:05.434Z,999.4
2018-07-13T09:23:15.524Z,999.43
2018-07-13T09:24:25.590Z,999.48
2018-07-13T09:25:35.656Z,999.52
2018-07-13T09:26:45.223Z,999.49
2018-07-13T09:27:55.308Z,999.42
2018-07-13T09:29:05.386Z,999.46
2018-07-13T09:30:15.495Z,999.52
2018-07-13T09:31:25.617Z,999.46
2018-07-13T09:32:35.713Z,999.52
2018-07-13T09:33:45.540Z,999.43
2018-07-13T09:34:55.611Z,999.39
2018-07-13T09:36:05.747Z,999.35
2018-07-13T09:37:15.820Z,999.32
2018-07-13T09:38:25.985Z,999.37
2018-07-13T09:39:36.310Z,999.4
2018-07-13T09:40:46.404Z,999.35
2018-07-13T09:41:55.972Z,999.4
2018-07-13T09:43:06.052Z,999.35
2018-07-13T09:44:15.954Z,999.39
2018-07-13T09:45:26.031Z,999.36
2018-07-13T09:46:36.159Z,999.42
2018-07-13T09:47:46.725Z,999.45
2018-07-13T09:48:56.547Z,999.46
2018-07-13T09:50:06.637Z,999.43
2018-07-13T09:51:16.727Z,999.37
2018-07-13T09:52:26.281Z,999.4
2018-07-13T09:53:36.413Z,999.39
2018-07-13T09:54:46.550Z,999.42
2018-07-13T09:55:56.739Z,999.33
2018-07-13T09:57:06.842Z,999.47
2018-07-13T09:58:16.974Z,999.3
2018-07-13T09:59:26.520Z,999.4
2018-07-13T10:00:36.710Z,999.32
2018-07-13T10:01:47.667Z,999.3
2018-07-13T10:02:57.480Z,999.28
2018-07-13T10:04:07.559Z,999.27
2018-07-13T10:05:17.651Z,999.28
2018-07-13T10:06:27.806Z,999.45
2018-07-13T10:07:37.959Z,999.3
2018-07-13T10:08:48.038Z,999.33
2018-07-13T10:09:58.115Z,999.22
2018-07-13T10:11:07.941Z,999.21
2018-07-13T10:12:17.811Z,999.18
2018-07-13T10:13:27.662Z,999.22
2018-07-13T10:14:38.134Z,999.22
2018-07-13T10:15:48.237Z,999.25
2018-07-13T10:16:58.316Z,999.22
2018-07-13T10:18:08.441Z,999.23
2018-07-13T10:19:18.267Z,999.24
2018-07-13T10:20:28.351Z,999.27
2018-07-13T10:21:38.484Z,999.24
2018-07-13T10:22:48.310Z,999.24
2018-07-13T10:23:59.389Z,999.21
2018-07-13T10:25:09.476Z,999.15
2018-07-13T10:26:19.028Z,999.25
2018-07-13T10:27:28.845Z,999.21
2018-07-13T10:28:38.641Z,999.25
2018-07-13T10:29:48.508Z,999.2
2018-07-13T10:30:58.331Z,999.15
2018-07-13T10:32:08.427Z,999.2
2018-07-13T10:33:18.503Z,999.22
2018-07-13T10:34:28.596Z,999.17
2018-07-13T10:35:38.424Z,999.27
2018-07-13T10:36:48.521Z,999.21
2018-07-13T10:37:58.606Z,999.1
2018-07-13T10:39:08.439Z,999.21
2018-07-13T10:40:18.255Z,999.32
2018-07-13T10:41:28.391Z,999.17
2018-07-13T10:42:38.208Z,999.19
2018-07-13T10:43:48.341Z,999.16
2018-07-13T10:44:58.431Z,999.12
2018-07-13T10:46:08.257Z,999.09
2018-07-13T10:47:18.395Z,999.2
2018-07-13T10:48:28.466Z,999.05
2018-07-13T10:49:38.539Z,999.05
2018-07-13T10:50:48.620Z,999.09
2018-07-13T10:51:58.432Z,999.13
2018-07-13T10:53:08.246Z,999.07
2018-07-13T10:54:18.051Z,999.06
2018-07-13T10:55:27.854Z,999.11
2018-07-13T10:56:37.933Z,999.1
2018-07-13T10:57:47.742Z,999.05
2018-07-13T10:58:57.828Z,999.07
2018-07-13T11:00:07.926Z,999.01
2018-07-13T11:01:18.035Z,999.02
2018-07-13T11:02:28.130Z,998.9
2018-07-13T11:03:38.228Z,998.86
2018-07-13T11:04:48.051Z,998.99
2018-07-13T11:05:58.157Z,998.94
2018-07-13T11:07:08.248Z,999.09
2018-07-13T11:08:18.096Z,999.01
2018-07-13T11:09:28.177Z,999.01
2018-07-13T11:10:37.997Z,998.87
2018-07-13T11:11:47.817Z,998.91
2018-07-13T11:12:57.368Z,998.87
2018-07-13T11:14:07.470Z,998.84
2018-07-13T11:15:17.358Z,998.85
2018-07-13T11:16:27.433Z,998.93
2018-07-13T11:17:37.534Z,998.88
2018-07-13T11:18:47.621Z,998.89
2018-07-13T11:19:57.444Z,998.96
2018-07-13T11:21:07.263Z,999
2018-07-13T11:22:16.884Z,998.93
2018-07-13T11:23:26.975Z,998.85
2018-07-13T11:24:37.052Z,998.9
2018-07-13T11:25:47.137Z,998.92
2018-07-13T11:26:57.253Z,998.97
2018-07-13T11:28:07.337Z,998.93
2018-07-13T11:29:17.416Z,998.96
2018-07-13T11:30:27.497Z,998.87
2018-07-13T11:31:37.581Z,998.91
2018-07-13T11:32:47.661Z,998.83
2018-07-13T11:33:57.547Z,998.86
2018-07-13T11:35:07.627Z,998.95
2018-07-13T11:36:17.450Z,998.96
2018-07-13T11:37:27.633Z,998.96
2018-07-13T11:38:37.839Z,998.94
2018-07-13T11:39:47.689Z,998.92
2018-07-13T11:40:57.784Z,998.94
2018-07-13T11:42:07.940Z,998.98
2018-07-13T11:43:17.778Z,998.93
2018-07-13T11:44:27.623Z,998.94
2018-07-13T11:45:37.714Z,998.94
2018-07-13T11:46:47.822Z,998.94
2018-07-13T11:47:57.918Z,998.96
2018-07-13T11:49:07.770Z,998.95
2018-07-13T11:50:17.912Z,998.93
2018-07-13T11:51:28.017Z,999
2018-07-13T11:52:38.101Z,999.02
2018-07-13T11:53:47.940Z,999.19
2018-07-13T11:54:58.026Z,999.03
2018-07-13T11:56:07.874Z,998.99
2018-07-13T11:57:17.981Z,998.97
2018-07-13T11:58:28.071Z,999.03
2018-07-13T11:59:38.153Z,998.95
2018-07-13T12:00:47.728Z,998.95
2018-07-13T12:01:57.874Z,998.92
2018-07-13T12:03:08.109Z,998.91
2018-07-13T12:04:17.939Z,998.96
2018-07-13T12:05:28.020Z,998.88
2018-07-13T12:06:38.110Z,998.92
2018-07-13T12:07:48.520Z,998.84
2018-07-13T12:08:58.612Z,998.86
2018-07-13T12:10:07.925Z,998.84
2018-07-13T12:11:18.013Z,998.83
2018-07-13T12:12:28.087Z,998.8
2018-07-13T12:13:38.288Z,998.82
2018-07-13T12:14:48.387Z,998.83
2018-07-13T12:15:58.473Z,998.83
2018-07-13T12:17:08.302Z,998.91
2018-07-13T12:18:18.441Z,998.8
2018-07-13T12:19:28.516Z,998.91
2018-07-13T12:20:38.348Z,998.91
2018-07-13T12:21:48.191Z,998.82
2018-07-13T12:22:58.291Z,998.96
2018-07-13T12:24:08.361Z,998.81
2018-07-13T12:25:18.449Z,998.78
2018-07-13T12:26:28.594Z,998.75
2018-07-13T12:27:38.694Z,998.78
2018-07-13T12:28:48.784Z,998.73
2018-07-13T12:29:58.871Z,998.69
2018-07-13T12:31:08.960Z,998.69
2018-07-13T12:32:18.815Z,998.7
2018-07-13T12:33:29.165Z,998.74
2018-07-13T12:34:39.239Z,998.7
2018-07-13T12:35:49.055Z,998.68
2018-07-13T12:36:58.902Z,998.62
2018-07-13T12:38:08.741Z,998.57
2018-07-13T12:39:18.828Z,998.63
2018-07-13T12:40:28.777Z,998.73
2018-07-13T12:41:38.577Z,998.68
2018-07-13T12:42:48.670Z,998.69
2018-07-13T12:43:58.500Z,998.74
2018-07-13T12:45:08.065Z,998.63
2018-07-13T12:46:18.152Z,998.61
2018-07-13T12:47:28.244Z,998.64
2018-07-13T12:48:38.325Z,998.57
2018-07-13T12:49:48.403Z,998.64
2018-07-13T12:50:58.253Z,998.63
2018-07-13T12:52:08.074Z,998.63
2018-07-13T12:53:18.157Z,998.62
2018-07-13T12:54:28.171Z,998.68
2018-07-13T12:55:38.631Z,998.62
2018-07-13T12:56:48.718Z,998.59
2018-07-13T12:57:58.804Z,998.63
2018-07-13T12:59:08.637Z,998.68
2018-07-13T13:00:18.770Z,998.68
2018-07-13T13:01:28.884Z,998.67
2018-07-13T13:02:38.961Z,998.73
2018-07-13T13:03:49.063Z,998.7
2018-07-13T13:04:59.174Z,998.75
2018-07-13T13:06:09.005Z,998.76
2018-07-13T13:07:19.086Z,998.65
2018-07-13T13:08:28.914Z,998.59
2018-07-13T13:09:38.996Z,998.61
2018-07-13T13:10:49.093Z,998.59
2018-07-13T13:11:59.181Z,998.53
2018-07-13T13:13:09.273Z,998.56
2018-07-13T13:14:19.093Z,998.56
2018-07-13T13:15:28.928Z,998.61
2018-07-13T13:16:39.013Z,998.66
2018-07-13T13:17:49.116Z,998.57
2018-07-13T13:18:59.181Z,998.63
2018-07-13T13:20:09.289Z,998.5
2018-07-13T13:21:19.369Z,998.66
2018-07-13T13:22:29.490Z,998.51
2018-07-13T13:23:39.578Z,998.51
2018-07-13T13:24:49.669Z,998.48
2018-07-13T13:25:59.749Z,998.57
2018-07-13T13:27:09.639Z,998.53
2018-07-13T13:28:19.784Z,998.7
2018-07-13T13:29:29.875Z,998.58
2018-07-13T13:30:39.684Z,998.58
2018-07-13T13:31:49.768Z,998.62
2018-07-13T13:32:59.609Z,998.68
2018-07-13T13:34:09.722Z,998.61
2018-07-13T13:35:19.819Z,998.62
2018-07-13T13:36:29.987Z,998.59
2018-07-13T13:37:40.084Z,998.56
2018-07-13T13:38:49.968Z,998.6
2018-07-13T13:40:00.045Z,998.59
2018-07-13T13:41:10.199Z,998.53
2018-07-13T13:42:20.304Z,998.55
2018-07-13T13:43:30.378Z,998.52
2018-07-13T13:44:40.459Z,998.5
2018-07-13T13:45:50.526Z,998.55
2018-07-13T13:47:00.637Z,998.56
2018-07-13T13:48:10.727Z,998.56
2018-07-13T13:49:20.806Z,998.59
2018-07-13T13:50:30.977Z,998.55
2018-07-13T13:51:41.109Z,998.58
2018-07-13T13:52:51.206Z,998.55
2018-07-13T13:54:01.308Z,998.63
2018-07-13T13:55:11.421Z,998.61
2018-07-13T13:56:21.543Z,998.72
2018-07-13T13:57:31.627Z,998.79
2018-07-13T13:58:41.729Z,998.78
2018-07-13T13:59:51.838Z,998.77
2018-07-13T14:01:02.329Z,998.76
2018-07-13T14:02:12.437Z,998.78
2018-07-13T14:03:22.540Z,998.67
2018-07-13T14:04:32.692Z,998.72
2018-07-13T14:05:42.501Z,998.67
2018-07-13T14:06:52.616Z,998.65
2018-07-13T14:08:02.765Z,998.65
2018-07-13T14:09:12.862Z,998.66
2018-07-13T14:10:23.177Z,998.66
2018-07-13T14:11:33.261Z,998.69
2018-07-13T14:12:43.353Z,998.66
2018-07-13T14:13:53.454Z,998.67
2018-07-13T14:15:03.549Z,998.64
2018-07-13T14:16:13.100Z,998.58
2018-07-13T14:17:23.230Z,998.58
2018-07-13T14:18:33.310Z,998.57
2018-07-13T14:19:43.407Z,998.61
2018-07-13T14:20:53.481Z,998.7
2018-07-13T14:22:03.569Z,998.74
2018-07-13T14:23:13.143Z,998.81
2018-07-13T14:24:23.247Z,998.93
2018-07-13T14:25:33.325Z,998.96
2018-07-13T14:26:43.387Z,998.95
2018-07-13T14:27:53.460Z,999.04
2018-07-13T14:29:03.544Z,999.02
2018-07-13T14:30:13.625Z,999
2018-07-13T14:31:23.757Z,999.01
2018-07-13T14:32:33.323Z,998.97
2018-07-13T14:33:43.138Z,998.93
2018-07-13T14:34:53.233Z,998.93
2018-07-13T14:36:03.310Z,998.92
2018-07-13T14:37:13.180Z,998.91
2018-07-13T14:38:23.273Z,998.88
2018-07-13T14:39:33.101Z,998.89
2018-07-13T14:40:42.932Z,998.89
2018-07-13T14:41:53.049Z,998.93
2018-07-13T14:43:02.927Z,998.9
2018-07-13T14:44:13.009Z,998.92
2018-07-13T14:45:23.104Z,998.98
2018-07-13T14:46:33.205Z,998.92
2018-07-13T14:47:43.353Z,998.94
2018-07-13T14:48:53.174Z,998.93
2018-07-13T14:50:03.249Z,998.93
2018-07-13T14:51:13.338Z,998.95
2018-07-13T14:52:23.410Z,998.91
2018-07-13T14:53:33.550Z,998.9
2018-07-13T14:54:43.381Z,998.87
2018-07-13T14:55:53.468Z,998.84
2018-07-13T14:57:03.677Z,998.84
2018-07-13T14:58:13.820Z,998.8
2018-07-13T14:59:23.590Z,998.8
2018-07-13T15:00:33.810Z,998.8
2018-07-13T15:01:43.643Z,998.81
2018-07-13T15:02:53.721Z,998.83
2018-07-13T15:04:03.956Z,998.82
2018-07-13T15:05:14.417Z,998.83
2018-07-13T15:06:24.672Z,998.86